createdAt,value
2023-09-25T00:00:00.441Z,98909.72
2023-09-25T00:03:04.997Z,98915.38
2023-09-25T00:06:08.988Z,98914.72
2023-09-25T00:09:13.434Z,98906.47
2023-09-25T00:12:16.421Z,98901.56
2023-09-25T00:15:19.605Z,98910.63
2023-09-25T00:18:22.541Z,98906.59
2023-09-25T00:21:25.606Z,98909.44
2023-09-25T00:24:29.847Z,98910.63
2023-09-25T00:27:33.059Z,98909.94
2023-09-25T00:30:36.256Z,98905.53
2023-09-25T00:33:39.090Z,98909.16
2023-09-25T00:36:41.997Z,98905.13
2023-09-25T00:39:47.590Z,98906.31
2023-09-25T00:42:51.905Z,98901.91
2023-09-25T00:45:55.674Z,98902.69
2023-09-25T00:48:58.907Z,98901.28
2023-09-25T00:52:02.104Z,98904.31
2023-09-25T00:55:07.548Z,98900.44
2023-09-25T00:58:11.986Z,98903.66
2023-09-25T01:01:15.159Z,98904.22
2023-09-25T01:04:18.621Z,98901.53
2023-09-25T01:07:21.645Z,98907.03
2023-09-25T01:10:25.962Z,98901.50
2023-09-25T01:13:29.707Z,98908.78
2023-09-25T01:16:32.870Z,98908.88
2023-09-25T01:19:35.994Z,98906.63
2023-09-25T01:22:40.048Z,98909.94
2023-09-25T01:25:42.789Z,98903.53
2023-09-25T01:28:45.572Z,98898.97
2023-09-25T01:31:48.494Z,98896.34
2023-09-25T01:34:53.570Z,98895.75
2023-09-25T01:37:59.619Z,98886.59
2023-09-25T01:41:02.475Z,98881.72
2023-09-25T01:44:05.919Z,98874.03
2023-09-25T01:47:08.728Z,98871.41
2023-09-25T01:50:12.907Z,98859.97
2023-09-25T01:53:17.161Z,98859.97
2023-09-25T01:56:19.920Z,98859.41
2023-09-25T01:59:22.769Z,98862.53
2023-09-25T02:02:25.605Z,98860.81
2023-09-25T02:05:28.589Z,98867.41
2023-09-25T02:08:32.898Z,98870.59
2023-09-25T02:11:35.626Z,98877.56
2023-09-25T02:14:38.456Z,98874.94
2023-09-25T02:17:41.262Z,98870.59
2023-09-25T02:20:46.581Z,98870.72
2023-09-25T02:23:50.834Z,98869.13
2023-09-25T02:26:53.578Z,98874.22
2023-09-25T02:29:56.342Z,98867.47
2023-09-25T02:33:01.786Z,98869.69
2023-09-25T02:36:06.051Z,98861.22
2023-09-25T02:39:11.188Z,98854.31
2023-09-25T02:42:14.045Z,98854.75
2023-09-25T02:45:17.554Z,98852.59
2023-09-25T02:48:20.476Z,98855.69
2023-09-25T02:51:23.409Z,98843.91
2023-09-25T02:54:27.548Z,98851.94
2023-09-25T02:57:30.435Z,98849.28
2023-09-25T03:00:33.292Z,98857.19
2023-09-25T03:03:36.127Z,98866.44
2023-09-25T03:06:38.891Z,98860.59
2023-09-25T03:09:43.372Z,98861.97
2023-09-25T03:12:46.123Z,98859.28
2023-09-25T03:15:49.131Z,98864.59
2023-09-25T03:18:52.331Z,98865.84
2023-09-25T03:21:55.230Z,98860.41
2023-09-25T03:24:59.284Z,98860.75
2023-09-25T03:28:02.051Z,98864.63
2023-09-25T03:31:04.836Z,98860.38
2023-09-25T03:34:07.756Z,98864.59
2023-09-25T03:37:10.771Z,98857.06
2023-09-25T03:40:15.183Z,98854.84
2023-09-25T03:43:17.834Z,98847.78
2023-09-25T03:46:20.785Z,98853.03
2023-09-25T03:49:23.513Z,98853.84
2023-09-25T03:52:26.177Z,98847.84
2023-09-25T03:55:30.529Z,98847.69
2023-09-25T03:58:33.298Z,98851.38
2023-09-25T04:01:36.063Z,98858.50
2023-09-25T04:04:39.020Z,98860.06
2023-09-25T04:07:41.945Z,98854.56
2023-09-25T04:10:45.978Z,98859.09
2023-09-25T04:13:49.213Z,98862.72
2023-09-25T04:16:51.984Z,98856.94
2023-09-25T04:19:54.868Z,98865.09
2023-09-25T04:22:58.321Z,98864.97
2023-09-25T04:26:02.787Z,98856.69
2023-09-25T04:29:05.804Z,98860.63
2023-09-25T04:32:08.626Z,98854.41
2023-09-25T04:35:13.467Z,98854.84
2023-09-25T04:38:16.281Z,98847.78
2023-09-25T04:41:20.672Z,98850.63
2023-09-25T04:44:23.355Z,98844.44
2023-09-25T04:47:26.500Z,98858.47
2023-09-25T04:50:29.664Z,98858.38
2023-09-25T04:53:32.589Z,98862.09
2023-09-25T04:56:37.783Z,98868.94
2023-09-25T04:59:40.556Z,98868.63
2023-09-25T05:02:46.993Z,98870.41
2023-09-25T05:05:50.490Z,98866.97
2023-09-25T05:08:53.388Z,98870.16
2023-09-25T05:11:58.009Z,98874.69
2023-09-25T05:15:00.883Z,98871.66
2023-09-25T05:18:04.150Z,98872.34
2023-09-25T05:21:06.911Z,98875.75
2023-09-25T05:24:09.968Z,98876.38
2023-09-25T05:27:14.180Z,98877.38
2023-09-25T05:30:18.631Z,98878.50
2023-09-25T05:33:21.853Z,98875.09
2023-09-25T05:36:24.668Z,98865.22
2023-09-25T05:39:27.465Z,98872.63
2023-09-25T05:42:31.808Z,98873.03
2023-09-25T05:45:34.685Z,98877.72
2023-09-25T05:48:38.172Z,98877.72
2023-09-25T05:51:40.998Z,98872.44
2023-09-25T05:54:44.099Z,98877.13
2023-09-25T05:57:48.295Z,98876.44
2023-09-25T06:00:51.148Z,98868.09
2023-09-25T06:03:55.275Z,98866.63
2023-09-25T06:06:58.184Z,98865.94
2023-09-25T06:10:02.493Z,98862.91
2023-09-25T06:13:07.248Z,98861.97
2023-09-25T06:16:10.810Z,98870.06
2023-09-25T06:19:14.117Z,98864.38
2023-09-25T06:22:16.823Z,98872.88
2023-09-25T06:25:20.156Z,98875.97
2023-09-25T06:28:25.437Z,98871.72
2023-09-25T06:31:29.000Z,98871.88
2023-09-25T06:34:32.377Z,98865.75
2023-09-25T06:37:37.940Z,98867.16
2023-09-25T06:40:45.872Z,98871.28
2023-09-25T06:43:49.907Z,98877.31
2023-09-25T06:46:53.217Z,98875.53
2023-09-25T06:49:57.081Z,98873.22
2023-09-25T06:53:00.058Z,98864.66
2023-09-25T06:56:02.896Z,98864.06
2023-09-25T06:59:07.084Z,98860.63
2023-09-25T07:02:10.284Z,98863.53
2023-09-25T07:05:13.437Z,98843.78
2023-09-25T07:08:16.340Z,98838.56
2023-09-25T07:11:20.304Z,98831.59
2023-09-25T07:14:25.391Z,98838.00
2023-09-25T07:17:29.194Z,98846.06
2023-09-25T07:20:32.073Z,98857.22
2023-09-25T07:23:34.824Z,98865.72
2023-09-25T07:26:37.564Z,98865.53
2023-09-25T07:29:43.964Z,98869.94
2023-09-25T07:32:46.828Z,98875.19
2023-09-25T07:35:49.646Z,98873.00
2023-09-25T07:38:53.200Z,98870.22
2023-09-25T07:41:56.312Z,98867.88
2023-09-25T07:45:00.512Z,98867.13
2023-09-25T07:48:04.240Z,98877.38
2023-09-25T07:51:08.256Z,98869.81
2023-09-25T07:54:11.502Z,98869.28
2023-09-25T07:57:15.899Z,98873.84
2023-09-25T08:00:24.385Z,98872.19
2023-09-25T08:03:27.310Z,98877.78
2023-09-25T08:06:30.003Z,98871.25
2023-09-25T08:09:32.842Z,98881.22
2023-09-25T08:12:35.595Z,98882.16
2023-09-25T08:15:39.760Z,98887.47
2023-09-25T08:18:42.571Z,98881.19
2023-09-25T08:21:45.534Z,98883.63
2023-09-25T08:24:48.460Z,98881.91
2023-09-25T08:27:52.654Z,98892.13
2023-09-25T08:30:57.500Z,98890.44
2023-09-25T08:34:00.308Z,98888.41
2023-09-25T08:37:03.261Z,98884.13
2023-09-25T08:40:08.095Z,98889.97
2023-09-25T08:43:20.326Z,98893.19
2023-09-25T08:46:27.280Z,98892.50
2023-09-25T08:49:32.581Z,98892.00
2023-09-25T08:52:35.696Z,98882.94
2023-09-25T08:55:39.198Z,98878.59
2023-09-25T08:58:44.263Z,98890.84
2023-09-25T09:01:48.670Z,98886.28
2023-09-25T09:04:52.292Z,98886.06
2023-09-25T09:07:59.271Z,98887.00
2023-09-25T09:11:11.105Z,98886.75
2023-09-25T09:14:14.187Z,98885.25
2023-09-25T09:17:18.308Z,98881.47
2023-09-25T09:20:21.593Z,98878.38
2023-09-25T09:23:40.798Z,98875.38
2023-09-25T09:26:43.906Z,98872.56
2023-09-25T09:29:46.769Z,98869.91
2023-09-25T09:32:52.110Z,98866.28
2023-09-25T09:35:54.894Z,98873.47
2023-09-25T09:38:59.148Z,98873.16
2023-09-25T09:42:05.008Z,98867.22
2023-09-25T09:45:09.833Z,98868.28
2023-09-25T09:48:18.083Z,98864.63
2023-09-25T09:51:21.015Z,98863.66
2023-09-25T09:54:24.653Z,98858.78
2023-09-25T09:57:28.460Z,98857.78
2023-09-25T10:00:31.948Z,98861.56
2023-09-25T10:03:37.006Z,98857.91
2023-09-25T10:06:48.833Z,98844.94
2023-09-25T10:09:59.560Z,98851.56
2023-09-25T10:13:02.813Z,98855.06
2023-09-25T10:16:05.847Z,98851.66
2023-09-25T10:19:21.003Z,98846.06
2023-09-25T10:22:30.618Z,98846.41
2023-09-25T10:25:34.866Z,98847.41
2023-09-25T10:28:40.076Z,98845.88
2023-09-25T10:31:48.206Z,98842.41
2023-09-25T10:34:52.486Z,98840.50
2023-09-25T10:38:30.242Z,98839.34
2023-09-25T10:41:34.254Z,98838.47
2023-09-25T10:44:37.910Z,98836.47
2023-09-25T10:47:40.911Z,98831.13
2023-09-25T10:50:47.096Z,98835.94
2023-09-25T10:53:50.061Z,98838.22
2023-09-25T10:56:54.807Z,98833.22
2023-09-25T10:59:57.886Z,98829.31
2023-09-25T11:03:00.893Z,98825.66
2023-09-25T11:06:05.584Z,98827.50
2023-09-25T11:09:09.119Z,98823.84
2023-09-25T11:12:12.106Z,98820.50
2023-09-25T11:15:15.839Z,98822.22
2023-09-25T11:18:20.842Z,98820.88
2023-09-25T11:21:25.256Z,98818.13
2023-09-25T11:24:28.471Z,98815.88
2023-09-25T11:27:31.814Z,98813.22
2023-09-25T11:30:35.204Z,98806.03
2023-09-25T11:33:38.214Z,98806.97
2023-09-25T11:36:46.910Z,98805.38
2023-09-25T11:39:50.060Z,98805.03
2023-09-25T11:42:53.725Z,98809.59
2023-09-25T11:45:56.775Z,98811.84
2023-09-25T11:48:59.945Z,98802.13
2023-09-25T11:52:04.479Z,98807.03
2023-09-25T11:55:08.922Z,98802.84
2023-09-25T11:58:11.746Z,98804.19
2023-09-25T12:01:14.502Z,98805.44
2023-09-25T12:04:17.486Z,98807.81
2023-09-25T12:07:22.594Z,98800.50
2023-09-25T12:10:25.564Z,98795.03
2023-09-25T12:13:28.487Z,98793.13
2023-09-25T12:16:31.496Z,98781.66
2023-09-25T12:19:34.278Z,98785.50
2023-09-25T12:22:38.672Z,98779.41
2023-09-25T12:25:41.554Z,98787.34
2023-09-25T12:28:44.685Z,98778.13
2023-09-25T12:31:48.651Z,98778.81
2023-09-25T12:34:52.055Z,98779.13
2023-09-25T12:37:57.489Z,98781.75
2023-09-25T12:41:00.793Z,98779.56
2023-09-25T12:44:03.787Z,98778.41
2023-09-25T12:47:06.631Z,98779.66
2023-09-25T12:50:10.254Z,98778.56
2023-09-25T12:53:14.445Z,98779.13
2023-09-25T12:56:17.328Z,98770.69
2023-09-25T12:59:20.204Z,98775.78
2023-09-25T13:02:23.105Z,98781.06
2023-09-25T13:05:26.110Z,98786.16
2023-09-25T13:08:30.902Z,98768.25
2023-09-25T13:11:37.381Z,98766.31
2023-09-25T13:14:40.175Z,98766.44
2023-09-25T13:17:43.229Z,98766.06
2023-09-25T13:20:46.125Z,98765.28
2023-09-25T13:23:50.416Z,98760.94
2023-09-25T13:26:53.298Z,98755.94
2023-09-25T13:29:56.209Z,98758.13
2023-09-25T13:32:59.425Z,98747.63
2023-09-25T13:36:02.337Z,98755.19
2023-09-25T13:39:06.806Z,98755.63
2023-09-25T13:42:12.684Z,98741.81
2023-09-25T13:45:16.148Z,98746.38
2023-09-25T13:48:19.252Z,98751.16
2023-09-25T13:51:22.034Z,98746.13
2023-09-25T13:54:26.406Z,98738.13
2023-09-25T13:57:29.285Z,98742.00
2023-09-25T14:00:33.458Z,98748.59
2023-09-25T14:03:36.488Z,98751.31
2023-09-25T14:06:39.946Z,98738.53
2023-09-25T14:09:45.087Z,98741.25
2023-09-25T14:12:48.150Z,98741.56
2023-09-25T14:15:51.189Z,98740.59
2023-09-25T14:18:54.364Z,98740.72
2023-09-25T14:21:57.175Z,98739.56
2023-09-25T14:25:02.351Z,98739.09
2023-09-25T14:28:06.057Z,98738.44
2023-09-25T14:31:09.049Z,98735.91
2023-09-25T14:34:11.907Z,98735.38
2023-09-25T14:37:14.777Z,98739.84
2023-09-25T14:40:18.948Z,98740.28
2023-09-25T14:43:21.702Z,98730.50
2023-09-25T14:46:24.605Z,98726.59
2023-09-25T14:49:27.641Z,98730.25
2023-09-25T14:52:32.239Z,98725.03
2023-09-25T14:55:53.616Z,98729.22
2023-09-25T14:58:59.343Z,98725.91
2023-09-25T15:02:02.128Z,98723.06
2023-09-25T15:05:05.521Z,98724.81
2023-09-25T15:08:08.394Z,98721.91
2023-09-25T15:11:13.342Z,98726.63
2023-09-25T15:14:16.139Z,98720.34
2023-09-25T15:17:19.240Z,98719.31
2023-09-25T15:20:22.106Z,98719.44
2023-09-25T15:23:24.923Z,98719.38
2023-09-25T15:26:29.441Z,98708.22
2023-09-25T15:29:32.173Z,98708.06
2023-09-25T15:32:36.218Z,98709.72
2023-09-25T15:35:39.586Z,98705.31
2023-09-25T15:38:42.648Z,98708.75
2023-09-25T15:41:47.049Z,98713.75
2023-09-25T15:44:49.967Z,98706.53
2023-09-25T15:47:52.687Z,98709.28
2023-09-25T15:50:55.508Z,98703.34
2023-09-25T15:53:59.358Z,98711.53
2023-09-25T15:57:03.493Z,98717.00
2023-09-25T16:00:07.777Z,98709.84
2023-09-25T16:03:10.991Z,98714.69
2023-09-25T16:06:14.288Z,98717.28
2023-09-25T16:09:17.181Z,98717.38
2023-09-25T16:12:21.425Z,98722.94
2023-09-25T16:15:24.376Z,98707.41
2023-09-25T16:18:27.189Z,98717.59
2023-09-25T16:21:30.002Z,98715.50
2023-09-25T16:24:32.891Z,98718.63
2023-09-25T16:27:37.212Z,98714.00
2023-09-25T16:30:40.480Z,98718.06
2023-09-25T16:33:43.554Z,98732.22
2023-09-25T16:36:46.420Z,98719.75
2023-09-25T16:39:49.226Z,98725.53
2023-09-25T16:42:53.535Z,98723.66
2023-09-25T16:45:56.563Z,98717.09
2023-09-25T16:48:59.453Z,98727.56
2023-09-25T16:52:02.356Z,98730.16
2023-09-25T16:55:06.059Z,98737.25
2023-09-25T16:58:10.244Z,98739.19
2023-09-25T17:01:13.406Z,98743.81
2023-09-25T17:04:16.337Z,98739.81
2023-09-25T17:07:19.197Z,98739.97
2023-09-25T17:10:22.063Z,98744.63
2023-09-25T17:13:28.394Z,98738.34
2023-09-25T17:16:33.588Z,98740.66
2023-09-25T17:19:36.554Z,98746.53
2023-09-25T17:22:39.388Z,98745.34
2023-09-25T17:25:42.193Z,98743.06
2023-09-25T17:28:46.413Z,98748.28
2023-09-25T17:31:49.731Z,98739.59
2023-09-25T17:34:53.216Z,98741.47
2023-09-25T17:37:56.229Z,98747.13
2023-09-25T17:40:59.039Z,98750.41
2023-09-25T17:44:03.432Z,98748.84
2023-09-25T17:47:06.990Z,98755.81
2023-09-25T17:50:10.838Z,98758.78
2023-09-25T17:53:13.780Z,98759.41
2023-09-25T17:56:16.908Z,98763.03
2023-09-25T17:59:21.656Z,98758.81
2023-09-25T18:02:24.502Z,98774.41
2023-09-25T18:05:29.953Z,98777.94
2023-09-25T18:08:33.348Z,98784.69
2023-09-25T18:11:36.313Z,98785.09
2023-09-25T18:14:40.717Z,98793.44
2023-09-25T18:17:43.673Z,98798.47
2023-09-25T18:20:46.729Z,98801.75
2023-09-25T18:23:49.772Z,98799.47
2023-09-25T18:26:53.322Z,98802.88
2023-09-25T18:29:57.501Z,98801.19
2023-09-25T18:33:02.160Z,98803.75
2023-09-25T18:36:05.489Z,98800.84
2023-09-25T18:39:08.489Z,98804.19
2023-09-25T18:42:11.324Z,98800.25
2023-09-25T18:45:15.612Z,98803.47
2023-09-25T18:48:18.853Z,98806.44
2023-09-25T18:51:23.689Z,98810.94
2023-09-25T18:54:26.655Z,98801.59
2023-09-25T18:57:29.489Z,98808.56
2023-09-25T19:00:33.930Z,98803.31
2023-09-25T19:03:36.841Z,98807.97
2023-09-25T19:06:39.792Z,98809.84
2023-09-25T19:09:42.720Z,98812.09
2023-09-25T19:12:45.705Z,98814.09
2023-09-25T19:15:50.809Z,98817.91
2023-09-25T19:18:58.075Z,98811.38
2023-09-25T19:22:01.425Z,98806.72
2023-09-25T19:25:04.298Z,98809.72
2023-09-25T19:28:09.845Z,98808.19
2023-09-25T19:31:36.805Z,98808.53
2023-09-25T19:34:36.935Z,98804.16
2023-09-25T19:37:39.841Z,98802.25
2023-09-25T19:40:42.951Z,98806.13
2023-09-25T19:43:49.217Z,98804.88
2023-09-25T19:46:53.673Z,98805.09
2023-09-25T19:49:56.644Z,98809.00
2023-09-25T19:52:59.665Z,98808.22
2023-09-25T19:56:02.620Z,98814.75
2023-09-25T19:59:05.655Z,98808.81
2023-09-25T20:02:10.059Z,98810.41
2023-09-25T20:05:13.160Z,98814.22
2023-09-25T20:08:19.761Z,98815.38
2023-09-25T20:11:23.202Z,98809.97
2023-09-25T20:14:25.985Z,98811.19
2023-09-25T20:17:30.078Z,98818.47
2023-09-25T20:20:32.913Z,98826.91
2023-09-25T20:23:35.862Z,98832.38
2023-09-25T20:26:40.717Z,98829.88
2023-09-25T20:29:43.836Z,98822.09
2023-09-25T20:32:47.931Z,98821.66
2023-09-25T20:35:50.657Z,98816.81
2023-09-25T20:38:53.454Z,98814.19
2023-09-25T20:41:56.326Z,98807.22
2023-09-25T20:44:59.146Z,98810.00
2023-09-25T20:48:03.634Z,98809.94
2023-09-25T20:51:06.552Z,98811.34
2023-09-25T20:54:09.397Z,98815.84
2023-09-25T20:57:12.834Z,98806.31
2023-09-25T21:00:16.797Z,98807.91
2023-09-25T21:03:21.132Z,98803.66
2023-09-25T21:06:24.004Z,98802.06
2023-09-25T21:09:26.868Z,98805.19
2023-09-25T21:12:29.749Z,98800.41
2023-09-25T21:15:32.555Z,98802.06
2023-09-25T21:18:36.816Z,98804.84
2023-09-25T21:21:39.699Z,98803.25
2023-09-25T21:24:42.656Z,98800.09
2023-09-25T21:27:45.525Z,98805.44
2023-09-25T21:30:48.540Z,98802.22
2023-09-25T21:33:53.729Z,98807.16
2023-09-25T21:36:56.871Z,98800.75
2023-09-25T21:40:01.014Z,98807.97
2023-09-25T21:43:03.892Z,98804.56
2023-09-25T21:46:06.855Z,98794.91
2023-09-25T21:49:11.240Z,98809.75
2023-09-25T21:52:14.092Z,98806.25
2023-09-25T21:55:17.015Z,98801.03
2023-09-25T21:58:19.920Z,98800.50
2023-09-25T22:01:22.829Z,98795.47
2023-09-25T22:04:27.293Z,98796.88
2023-09-25T22:07:31.405Z,98796.38
2023-09-25T22:10:34.543Z,98791.59
2023-09-25T22:13:37.840Z,98796.69
2023-09-25T22:16:42.878Z,98785.63
2023-09-25T22:19:47.052Z,98794.00
2023-09-25T22:22:49.998Z,98797.03
2023-09-25T22:25:52.871Z,98793.22
2023-09-25T22:28:55.639Z,98782.69
2023-09-25T22:31:58.503Z,98785.38
2023-09-25T22:35:03.543Z,98776.34
2023-09-25T22:38:07.894Z,98779.81
2023-09-25T22:41:10.725Z,98785.78
2023-09-25T22:44:13.558Z,98776.97
2023-09-25T22:47:16.412Z,98777.50
2023-09-25T22:50:20.632Z,98780.97
2023-09-25T22:53:23.572Z,98779.13
2023-09-25T22:56:26.334Z,98780.47
2023-09-25T22:59:29.122Z,98781.28
2023-09-25T23:02:32.041Z,98780.19
2023-09-25T23:05:36.316Z,98780.44
2023-09-25T23:08:39.082Z,98781.56
2023-09-25T23:11:41.812Z,98779.41
2023-09-25T23:14:44.735Z,98782.44
2023-09-25T23:17:47.522Z,98770.03
2023-09-25T23:20:53.423Z,98768.97
2023-09-25T23:23:56.300Z,98774.09
2023-09-25T23:26:59.084Z,98773.00
2023-09-25T23:30:01.972Z,98773.53
2023-09-25T23:33:07.343Z,98785.44
2023-09-25T23:36:11.600Z,98785.72
2023-09-25T23:39:15.967Z,98790.59
2023-09-25T23:42:19.343Z,98793.03
2023-09-25T23:45:23.538Z,98786.84
2023-09-25T23:48:26.925Z,98785.19
2023-09-25T23:51:30.991Z,98779.84
2023-09-25T23:54:33.789Z,98783.91
2023-09-25T23:57:39.514Z,98785.78
